sensor_id;sensor_type;location;lat;lon;timestamp;P1;durP1;ratioP1;P2;durP2;ratioP2
18973;SDS011;9621;48.690;9.466;2023-04-25T00:01:39;4.38;;;3.03;;
18973;SDS011;9621;48.690;9.466;2023-04-25T00:04:06;7.05;;;2.92;;
18973;SDS011;9621;48.690;9.466;2023-04-25T00:06:33;4.63;;;3.10;;
18973;SDS011;9621;48.690;9.466;2023-04-25T00:09:01;5.88;;;2.97;;
18973;SDS011;9621;48.690;9.466;2023-04-25T00:11:28;3.97;;;2.80;;
18973;SDS011;9621;48.690;9.466;2023-04-25T00:13:56;4.28;;;2.88;;
18973;SDS011;9621;48.690;9.466;2023-04-25T00:16:24;3.22;;;2.78;;
18973;SDS011;9621;48.690;9.466;2023-04-25T00:18:53;4.50;;;3.25;;
18973;SDS011;9621;48.690;9.466;2023-04-25T00:21:20;7.40;;;3.38;;
18973;SDS011;9621;48.690;9.466;2023-04-25T00:23:49;2.90;;;2.67;;
18973;SDS011;9621;48.690;9.466;2023-04-25T00:26:16;3.28;;;2.65;;
18973;SDS011;9621;48.690;9.466;2023-04-25T00:28:43;8.57;;;2.85;;
18973;SDS011;9621;48.690;9.466;2023-04-25T00:31:10;4.63;;;2.97;;
18973;SDS011;9621;48.690;9.466;2023-04-25T00:33:37;3.77;;;2.63;;
18973;SDS011;9621;48.690;9.466;2023-04-25T00:36:06;4.57;;;3.00;;
18973;SDS011;9621;48.690;9.466;2023-04-25T00:38:33;7.80;;;3.47;;
18973;SDS011;9621;48.690;9.466;2023-04-25T00:41:00;4.18;;;3.50;;
18973;SDS011;9621;48.690;9.466;2023-04-25T00:43:27;5.80;;;3.28;;
18973;SDS011;9621;48.690;9.466;2023-04-25T00:45:56;4.18;;;3.33;;
18973;SDS011;9621;48.690;9.466;2023-04-25T00:48:23;6.50;;;3.60;;
18973;SDS011;9621;48.690;9.466;2023-04-25T00:50:51;8.43;;;3.55;;
18973;SDS011;9621;48.690;9.466;2023-04-25T00:53:21;6.82;;;3.40;;
18973;SDS011;9621;48.690;9.466;2023-04-25T00:55:48;3.55;;;3.05;;
18973;SDS011;9621;48.690;9.466;2023-04-25T00:58:16;5.72;;;3.53;;
18973;SDS011;9621;48.690;9.466;2023-04-25T01:00:43;5.20;;;3.47;;
18973;SDS011;9621;48.690;9.466;2023-04-25T01:03:11;6.00;;;3.33;;
18973;SDS011;9621;48.690;9.466;2023-04-25T01:05:39;5.63;;;3.38;;
18973;SDS011;9621;48.690;9.466;2023-04-25T01:08:06;4.50;;;3.22;;
18973;SDS011;9621;48.690;9.466;2023-04-25T01:10:35;4.28;;;3.40;;
18973;SDS011;9621;48.690;9.466;2023-04-25T01:13:02;5.43;;;3.20;;
18973;SDS011;9621;48.690;9.466;2023-04-25T01:15:30;6.38;;;3.50;;
18973;SDS011;9621;48.690;9.466;2023-04-25T01:17:57;5.25;;;3.25;;
18973;SDS011;9621;48.690;9.466;2023-04-25T01:20:25;4.72;;;3.65;;
18973;SDS011;9621;48.690;9.466;2023-04-25T01:22:54;5.03;;;3.53;;
18973;SDS011;9621;48.690;9.466;2023-04-25T01:25:22;4.15;;;3.28;;
18973;SDS011;9621;48.690;9.466;2023-04-25T01:27:49;6.15;;;3.28;;
18973;SDS011;9621;48.690;9.466;2023-04-25T01:30:16;5.88;;;3.05;;
18973;SDS011;9621;48.690;9.466;2023-04-25T01:32:44;6.20;;;3.38;;
18973;SDS011;9621;48.690;9.466;2023-04-25T01:35:11;5.97;;;3.70;;
18973;SDS011;9621;48.690;9.466;2023-04-25T01:37:38;5.40;;;3.60;;
18973;SDS011;9621;48.690;9.466;2023-04-25T01:40:07;5.32;;;3.25;;
18973;SDS011;9621;48.690;9.466;2023-04-25T01:42:36;6.65;;;3.58;;
18973;SDS011;9621;48.690;9.466;2023-04-25T01:45:05;6.45;;;3.30;;
18973;SDS011;9621;48.690;9.466;2023-04-25T01:47:33;5.47;;;3.35;;
18973;SDS011;9621;48.690;9.466;2023-04-25T01:50:00;4.97;;;3.55;;
18973;SDS011;9621;48.690;9.466;2023-04-25T01:52:27;8.43;;;3.75;;
18973;SDS011;9621;48.690;9.466;2023-04-25T01:54:55;6.22;;;3.28;;
18973;SDS011;9621;48.690;9.466;2023-04-25T01:57:24;6.60;;;3.42;;
18973;SDS011;9621;48.690;9.466;2023-04-25T01:59:51;4.95;;;3.40;;
18973;SDS011;9621;48.690;9.466;2023-04-25T02:02:24;6.97;;;3.55;;
18973;SDS011;9621;48.690;9.466;2023-04-25T02:04:51;6.30;;;3.67;;
18973;SDS011;9621;48.690;9.466;2023-04-25T02:07:19;4.70;;;3.50;;
18973;SDS011;9621;48.690;9.466;2023-04-25T02:09:46;5.47;;;3.55;;
18973;SDS011;9621;48.690;9.466;2023-04-25T02:12:13;5.55;;;3.67;;
18973;SDS011;9621;48.690;9.466;2023-04-25T02:14:41;4.88;;;3.97;;
18973;SDS011;9621;48.690;9.466;2023-04-25T02:17:08;3.63;;;3.28;;
18973;SDS011;9621;48.690;9.466;2023-04-25T02:19:35;5.30;;;3.72;;
18973;SDS011;9621;48.690;9.466;2023-04-25T02:22:04;6.75;;;3.75;;
18973;SDS011;9621;48.690;9.466;2023-04-25T02:24:31;4.20;;;3.35;;
18973;SDS011;9621;48.690;9.466;2023-04-25T02:26:58;9.00;;;3.50;;
18973;SDS011;9621;48.690;9.466;2023-04-25T02:29:25;6.53;;;4.32;;
18973;SDS011;9621;48.690;9.466;2023-04-25T02:31:54;6.65;;;3.90;;
18973;SDS011;9621;48.690;9.466;2023-04-25T02:34:21;5.78;;;4.10;;
18973;SDS011;9621;48.690;9.466;2023-04-25T02:36:48;5.40;;;3.65;;
18973;SDS011;9621;48.690;9.466;2023-04-25T02:39:15;6.07;;;3.83;;
18973;SDS011;9621;48.690;9.466;2023-04-25T02:41:42;9.85;;;3.95;;
18973;SDS011;9621;48.690;9.466;2023-04-25T02:44:09;5.32;;;3.22;;
18973;SDS011;9621;48.690;9.466;2023-04-25T02:46:36;4.88;;;3.60;;
18973;SDS011;9621;48.690;9.466;2023-04-25T02:49:05;6.65;;;4.07;;
18973;SDS011;9621;48.690;9.466;2023-04-25T02:51:32;7.10;;;3.60;;
18973;SDS011;9621;48.690;9.466;2023-04-25T02:53:59;5.60;;;3.92;;
18973;SDS011;9621;48.690;9.466;2023-04-25T02:56:26;5.18;;;3.47;;
18973;SDS011;9621;48.690;9.466;2023-04-25T02:58:53;5.72;;;3.45;;
18973;SDS011;9621;48.690;9.466;2023-04-25T03:01:24;6.65;;;3.97;;
18973;SDS011;9621;48.690;9.466;2023-04-25T03:03:51;5.57;;;3.42;;
18973;SDS011;9621;48.690;9.466;2023-04-25T03:06:19;7.07;;;3.78;;
18973;SDS011;9621;48.690;9.466;2023-04-25T03:08:46;4.23;;;3.20;;
18973;SDS011;9621;48.690;9.466;2023-04-25T03:11:13;3.57;;;3.03;;
18973;SDS011;9621;48.690;9.466;2023-04-25T03:13:40;3.50;;;3.20;;
18973;SDS011;9621;48.690;9.466;2023-04-25T03:16:07;7.50;;;3.42;;
18973;SDS011;9621;48.690;9.466;2023-04-25T03:18:34;5.80;;;3.83;;
18973;SDS011;9621;48.690;9.466;2023-04-25T03:21:01;8.63;;;3.30;;
18973;SDS011;9621;48.690;9.466;2023-04-25T03:23:29;5.30;;;3.75;;
18973;SDS011;9621;48.690;9.466;2023-04-25T03:25:56;4.93;;;3.50;;
18973;SDS011;9621;48.690;9.466;2023-04-25T03:28:23;6.25;;;3.03;;
18973;SDS011;9621;48.690;9.466;2023-04-25T03:30:50;5.23;;;3.33;;
18973;SDS011;9621;48.690;9.466;2023-04-25T03:33:17;4.15;;;3.17;;
18973;SDS011;9621;48.690;9.466;2023-04-25T03:35:44;4.93;;;2.93;;
18973;SDS011;9621;48.690;9.466;2023-04-25T03:38:11;3.42;;;2.70;;
18973;SDS011;9621;48.690;9.466;2023-04-25T03:40:40;5.87;;;3.40;;
18973;SDS011;9621;48.690;9.466;2023-04-25T03:43:06;7.13;;;3.67;;
18973;SDS011;9621;48.690;9.466;2023-04-25T03:45:33;5.22;;;3.53;;
18973;SDS011;9621;48.690;9.466;2023-04-25T03:48:00;4.27;;;2.60;;
18973;SDS011;9621;48.690;9.466;2023-04-25T03:50:27;5.13;;;3.50;;
18973;SDS011;9621;48.690;9.466;2023-04-25T03:52:54;4.87;;;3.30;;
18973;SDS011;9621;48.690;9.466;2023-04-25T03:55:21;7.67;;;3.37;;
18973;SDS011;9621;48.690;9.466;2023-04-25T03:57:49;3.97;;;3.40;;
18973;SDS011;9621;48.690;9.466;2023-04-25T04:00:16;3.97;;;3.30;;
18973;SDS011;9621;48.690;9.466;2023-04-25T04:02:43;4.67;;;3.10;;
18973;SDS011;9621;48.690;9.466;2023-04-25T04:05:10;7.50;;;3.50;;
18973;SDS011;9621;48.690;9.466;2023-04-25T04:07:38;3.90;;;3.30;;
18973;SDS011;9621;48.690;9.466;2023-04-25T04:10:07;4.47;;;3.47;;
18973;SDS011;9621;48.690;9.466;2023-04-25T04:12:35;8.03;;;3.40;;
18973;SDS011;9621;48.690;9.466;2023-04-25T04:15:03;7.50;;;3.50;;
18973;SDS011;9621;48.690;9.466;2023-04-25T04:17:31;6.17;;;3.97;;
18973;SDS011;9621;48.690;9.466;2023-04-25T04:19:59;6.57;;;3.37;;
18973;SDS011;9621;48.690;9.466;2023-04-25T04:22:26;14.73;;;9.53;;
18973;SDS011;9621;48.690;9.466;2023-04-25T04:24:52;14.63;;;11.17;;
18973;SDS011;9621;48.690;9.466;2023-04-25T04:27:21;13.47;;;7.90;;
18973;SDS011;9621;48.690;9.466;2023-04-25T04:29:48;11.93;;;6.40;;
18973;SDS011;9621;48.690;9.466;2023-04-25T04:32:18;9.60;;;4.60;;
18973;SDS011;9621;48.690;9.466;2023-04-25T04:34:45;9.03;;;4.77;;
18973;SDS011;9621;48.690;9.466;2023-04-25T04:37:13;7.83;;;3.90;;
18973;SDS011;9621;48.690;9.466;2023-04-25T04:39:41;6.13;;;3.83;;
18973;SDS011;9621;48.690;9.466;2023-04-25T04:42:07;6.75;;;3.95;;
18973;SDS011;9621;48.690;9.466;2023-04-25T04:44:36;11.30;;;4.40;;
18973;SDS011;9621;48.690;9.466;2023-04-25T04:47:04;6.57;;;4.80;;
18973;SDS011;9621;48.690;9.466;2023-04-25T04:49:33;5.83;;;4.50;;
18973;SDS011;9621;48.690;9.466;2023-04-25T04:52:00;6.93;;;4.57;;
18973;SDS011;9621;48.690;9.466;2023-04-25T04:54:26;6.00;;;5.03;;
18973;SDS011;9621;48.690;9.466;2023-04-25T04:56:53;7.00;;;5.20;;
18973;SDS011;9621;48.690;9.466;2023-04-25T04:59:21;6.40;;;4.60;;
18973;SDS011;9621;48.690;9.466;2023-04-25T05:01:48;7.53;;;5.10;;
18973;SDS011;9621;48.690;9.466;2023-04-25T05:04:15;10.20;;;5.30;;
18973;SDS011;9621;48.690;9.466;2023-04-25T05:06:43;8.30;;;5.30;;
18973;SDS011;9621;48.690;9.466;2023-04-25T05:09:10;9.63;;;4.65;;
18973;SDS011;9621;48.690;9.466;2023-04-25T05:11:36;8.32;;;4.50;;
18973;SDS011;9621;48.690;9.466;2023-04-25T05:14:04;6.10;;;4.00;;
18973;SDS011;9621;48.690;9.466;2023-04-25T05:16:30;6.38;;;4.18;;
18973;SDS011;9621;48.690;9.466;2023-04-25T05:18:57;5.57;;;3.65;;
18973;SDS011;9621;48.690;9.466;2023-04-25T05:21:24;4.90;;;3.60;;
18973;SDS011;9621;48.690;9.466;2023-04-25T05:23:53;5.43;;;3.80;;
18973;SDS011;9621;48.690;9.466;2023-04-25T05:26:22;5.45;;;3.65;;
18973;SDS011;9621;48.690;9.466;2023-04-25T05:28:49;7.65;;;3.70;;
18973;SDS011;9621;48.690;9.466;2023-04-25T05:31:17;4.45;;;3.15;;
18973;SDS011;9621;48.690;9.466;2023-04-25T05:33:44;7.40;;;3.88;;
18973;SDS011;9621;48.690;9.466;2023-04-25T05:36:10;6.70;;;3.70;;
18973;SDS011;9621;48.690;9.466;2023-04-25T05:38:37;7.18;;;3.55;;
18973;SDS011;9621;48.690;9.466;2023-04-25T05:41:05;7.43;;;3.80;;
18973;SDS011;9621;48.690;9.466;2023-04-25T05:43:33;6.75;;;3.53;;
18973;SDS011;9621;48.690;9.466;2023-04-25T05:46:00;5.82;;;3.08;;
18973;SDS011;9621;48.690;9.466;2023-04-25T05:48:27;6.13;;;3.63;;
18973;SDS011;9621;48.690;9.466;2023-04-25T05:50:53;5.72;;;3.75;;
18973;SDS011;9621;48.690;9.466;2023-04-25T05:53:20;6.45;;;3.67;;
18973;SDS011;9621;48.690;9.466;2023-04-25T05:55:48;5.38;;;3.58;;
18973;SDS011;9621;48.690;9.466;2023-04-25T05:58:16;7.93;;;3.70;;
18973;SDS011;9621;48.690;9.466;2023-04-25T06:00:43;6.28;;;3.75;;
18973;SDS011;9621;48.690;9.466;2023-04-25T06:03:11;10.15;;;3.90;;
18973;SDS011;9621;48.690;9.466;2023-04-25T06:05:39;7.30;;;4.05;;
18973;SDS011;9621;48.690;9.466;2023-04-25T06:08:07;7.15;;;3.72;;
18973;SDS011;9621;48.690;9.466;2023-04-25T06:10:34;6.13;;;3.85;;
18973;SDS011;9621;48.690;9.466;2023-04-25T06:13:01;8.75;;;3.53;;
18973;SDS011;9621;48.690;9.466;2023-04-25T06:15:29;4.93;;;3.00;;
18973;SDS011;9621;48.690;9.466;2023-04-25T06:17:57;6.30;;;2.63;;
18973;SDS011;9621;48.690;9.466;2023-04-25T06:20:24;4.65;;;3.00;;
18973;SDS011;9621;48.690;9.466;2023-04-25T06:22:51;7.20;;;3.17;;
18973;SDS011;9621;48.690;9.466;2023-04-25T06:25:18;4.18;;;2.80;;
18973;SDS011;9621;48.690;9.466;2023-04-25T06:27:45;4.03;;;2.88;;
18973;SDS011;9621;48.690;9.466;2023-04-25T06:30:12;4.15;;;2.38;;
18973;SDS011;9621;48.690;9.466;2023-04-25T06:32:40;5.10;;;2.72;;
18973;SDS011;9621;48.690;9.466;2023-04-25T06:35:07;5.97;;;3.22;;
18973;SDS011;9621;48.690;9.466;2023-04-25T06:37:35;5.25;;;3.33;;
18973;SDS011;9621;48.690;9.466;2023-04-25T06:40:03;7.10;;;2.70;;
18973;SDS011;9621;48.690;9.466;2023-04-25T06:42:31;5.18;;;2.92;;
18973;SDS011;9621;48.690;9.466;2023-04-25T06:44:58;4.30;;;2.60;;
18973;SDS011;9621;48.690;9.466;2023-04-25T06:47:25;4.72;;;2.80;;
18973;SDS011;9621;48.690;9.466;2023-04-25T06:49:53;4.38;;;2.63;;
18973;SDS011;9621;48.690;9.466;2023-04-25T06:52:20;7.75;;;2.70;;
18973;SDS011;9621;48.690;9.466;2023-04-25T06:54:48;5.60;;;2.95;;
18973;SDS011;9621;48.690;9.466;2023-04-25T06:57:15;7.53;;;2.70;;
18973;SDS011;9621;48.690;9.466;2023-04-25T06:59:41;4.55;;;2.83;;
18973;SDS011;9621;48.690;9.466;2023-04-25T07:02:08;3.67;;;2.80;;
18973;SDS011;9621;48.690;9.466;2023-04-25T07:04:35;4.43;;;2.75;;
18973;SDS011;9621;48.690;9.466;2023-04-25T07:07:04;5.43;;;3.13;;
18973;SDS011;9621;48.690;9.466;2023-04-25T07:09:30;5.15;;;2.80;;
18973;SDS011;9621;48.690;9.466;2023-04-25T07:11:59;6.15;;;3.20;;
18973;SDS011;9621;48.690;9.466;2023-04-25T07:14:26;4.18;;;3.25;;
18973;SDS011;9621;48.690;9.466;2023-04-25T07:16:53;7.38;;;4.82;;
18973;SDS011;9621;48.690;9.466;2023-04-25T07:19:20;6.30;;;4.55;;
18973;SDS011;9621;48.690;9.466;2023-04-25T07:21:49;4.72;;;3.40;;
18973;SDS011;9621;48.690;9.466;2023-04-25T07:24:17;4.63;;;3.28;;
18973;SDS011;9621;48.690;9.466;2023-04-25T07:26:44;3.40;;;3.10;;
18973;SDS011;9621;48.690;9.466;2023-04-25T07:29:11;7.80;;;2.58;;
18973;SDS011;9621;48.690;9.466;2023-04-25T07:31:38;6.13;;;3.03;;
18973;SDS011;9621;48.690;9.466;2023-04-25T07:34:05;4.78;;;2.58;;
18973;SDS011;9621;48.690;9.466;2023-04-25T07:36:32;5.00;;;3.15;;
18973;SDS011;9621;48.690;9.466;2023-04-25T07:38:59;3.38;;;2.90;;
18973;SDS011;9621;48.690;9.466;2023-04-25T07:41:28;4.63;;;2.85;;
18973;SDS011;9621;48.690;9.466;2023-04-25T07:43:54;4.72;;;3.00;;
18973;SDS011;9621;48.690;9.466;2023-04-25T07:46:21;6.72;;;3.45;;
18973;SDS011;9621;48.690;9.466;2023-04-25T07:48:48;3.65;;;3.10;;
18973;SDS011;9621;48.690;9.466;2023-04-25T07:51:15;5.35;;;3.25;;
18973;SDS011;9621;48.690;9.466;2023-04-25T07:53:44;4.70;;;3.03;;
18973;SDS011;9621;48.690;9.466;2023-04-25T07:56:11;4.53;;;3.05;;
18973;SDS011;9621;48.690;9.466;2023-04-25T07:58:40;6.13;;;3.55;;
18973;SDS011;9621;48.690;9.466;2023-04-25T08:01:07;6.75;;;3.63;;
18973;SDS011;9621;48.690;9.466;2023-04-25T08:03:34;3.90;;;3.38;;
18973;SDS011;9621;48.690;9.466;2023-04-25T08:06:01;7.68;;;3.38;;
18973;SDS011;9621;48.690;9.466;2023-04-25T08:08:27;4.80;;;3.15;;
18973;SDS011;9621;48.690;9.466;2023-04-25T08:10:54;4.95;;;3.20;;
18973;SDS011;9621;48.690;9.466;2023-04-25T08:13:21;3.60;;;3.10;;
18973;SDS011;9621;48.690;9.466;2023-04-25T08:15:50;3.80;;;3.05;;
18973;SDS011;9621;48.690;9.466;2023-04-25T08:18:17;5.32;;;3.55;;
18973;SDS011;9621;48.690;9.466;2023-04-25T08:20:44;8.43;;;3.50;;
18973;SDS011;9621;48.690;9.466;2023-04-25T08:23:11;4.03;;;3.35;;
18973;SDS011;9621;48.690;9.466;2023-04-25T08:25:39;6.40;;;3.50;;
18973;SDS011;9621;48.690;9.466;2023-04-25T08:28:06;4.32;;;3.55;;
18973;SDS011;9621;48.690;9.466;2023-04-25T08:30:33;3.50;;;3.00;;
18973;SDS011;9621;48.690;9.466;2023-04-25T08:33:01;6.18;;;3.58;;
18973;SDS011;9621;48.690;9.466;2023-04-25T08:35:29;4.90;;;3.85;;
18973;SDS011;9621;48.690;9.466;2023-04-25T08:37:56;4.38;;;3.85;;
18973;SDS011;9621;48.690;9.466;2023-04-25T08:40:23;6.45;;;3.80;;
18973;SDS011;9621;48.690;9.466;2023-04-25T08:42:55;6.75;;;4.07;;
18973;SDS011;9621;48.690;9.466;2023-04-25T08:45:23;5.28;;;3.78;;
18973;SDS011;9621;48.690;9.466;2023-04-25T08:47:51;6.43;;;4.40;;
18973;SDS011;9621;48.690;9.466;2023-04-25T08:50:21;7.25;;;4.13;;
18973;SDS011;9621;48.690;9.466;2023-04-25T08:52:51;5.50;;;3.95;;
18973;SDS011;9621;48.690;9.466;2023-04-25T08:55:20;5.53;;;4.15;;
18973;SDS011;9621;48.690;9.466;2023-04-25T08:57:48;6.75;;;4.90;;
18973;SDS011;9621;48.690;9.466;2023-04-25T09:00:16;5.80;;;4.57;;
18973;SDS011;9621;48.690;9.466;2023-04-25T09:02:45;8.60;;;5.25;;
18973;SDS011;9621;48.690;9.466;2023-04-25T09:05:13;5.50;;;4.53;;
18973;SDS011;9621;48.690;9.466;2023-04-25T09:07:42;7.82;;;4.60;;
18973;SDS011;9621;48.690;9.466;2023-04-25T09:10:09;7.88;;;4.70;;
18973;SDS011;9621;48.690;9.466;2023-04-25T09:12:36;6.60;;;4.32;;
18973;SDS011;9621;48.690;9.466;2023-04-25T09:15:04;6.18;;;5.15;;
18973;SDS011;9621;48.690;9.466;2023-04-25T09:17:32;8.73;;;5.55;;
18973;SDS011;9621;48.690;9.466;2023-04-25T09:20:06;7.07;;;4.75;;
18973;SDS011;9621;48.690;9.466;2023-04-25T09:22:34;6.20;;;4.28;;
18973;SDS011;9621;48.690;9.466;2023-04-25T09:25:09;6.00;;;4.35;;
18973;SDS011;9621;48.690;9.466;2023-04-25T09:27:37;8.23;;;4.35;;
18973;SDS011;9621;48.690;9.466;2023-04-25T09:30:16;5.97;;;4.22;;
18973;SDS011;9621;48.690;9.466;2023-04-25T09:32:43;6.75;;;4.35;;
18973;SDS011;9621;48.690;9.466;2023-04-25T09:35:10;5.07;;;4.32;;
18973;SDS011;9621;48.690;9.466;2023-04-25T09:37:49;6.88;;;4.25;;
18973;SDS011;9621;48.690;9.466;2023-04-25T09:40:18;6.82;;;4.57;;
18973;SDS011;9621;48.690;9.466;2023-04-25T09:42:46;7.65;;;5.05;;
18973;SDS011;9621;48.690;9.466;2023-04-25T09:45:12;5.50;;;4.60;;
18973;SDS011;9621;48.690;9.466;2023-04-25T09:47:40;7.78;;;4.63;;
18973;SDS011;9621;48.690;9.466;2023-04-25T09:50:13;8.73;;;5.20;;
18973;SDS011;9621;48.690;9.466;2023-04-25T09:52:41;8.30;;;5.22;;
18973;SDS011;9621;48.690;9.466;2023-04-25T09:55:08;6.95;;;5.40;;
18973;SDS011;9621;48.690;9.466;2023-04-25T09:57:36;9.00;;;5.50;;
18973;SDS011;9621;48.690;9.466;2023-04-25T10:00:05;7.37;;;5.07;;
18973;SDS011;9621;48.690;9.466;2023-04-25T10:02:37;7.45;;;5.63;;
18973;SDS011;9621;48.690;9.466;2023-04-25T10:05:08;11.65;;;5.90;;
18973;SDS011;9621;48.690;9.466;2023-04-25T10:07:36;7.90;;;5.25;;
18973;SDS011;9621;48.690;9.466;2023-04-25T10:10:04;8.82;;;6.00;;
18973;SDS011;9621;48.690;9.466;2023-04-25T10:12:32;8.85;;;5.20;;
18973;SDS011;9621;48.690;9.466;2023-04-25T10:15:01;6.33;;;5.10;;
18973;SDS011;9621;48.690;9.466;2023-04-25T10:17:30;8.25;;;5.93;;
18973;SDS011;9621;48.690;9.466;2023-04-25T10:19:59;18.05;;;8.23;;
18973;SDS011;9621;48.690;9.466;2023-04-25T10:22:29;16.02;;;8.60;;
18973;SDS011;9621;48.690;9.466;2023-04-25T10:24:58;13.10;;;7.80;;
18973;SDS011;9621;48.690;9.466;2023-04-25T10:27:28;10.13;;;7.43;;
18973;SDS011;9621;48.690;9.466;2023-04-25T10:30:04;9.63;;;6.45;;
18973;SDS011;9621;48.690;9.466;2023-04-25T10:32:35;10.37;;;5.80;;
18973;SDS011;9621;48.690;9.466;2023-04-25T10:35:12;10.88;;;7.20;;
18973;SDS011;9621;48.690;9.466;2023-04-25T10:40:26;13.57;;;7.05;;
18973;SDS011;9621;48.690;9.466;2023-04-25T10:42:53;11.43;;;6.82;;
18973;SDS011;9621;48.690;9.466;2023-04-25T10:45:22;10.00;;;6.05;;
18973;SDS011;9621;48.690;9.466;2023-04-25T10:47:49;8.15;;;6.18;;
18973;SDS011;9621;48.690;9.466;2023-04-25T10:50:16;7.80;;;5.43;;
18973;SDS011;9621;48.690;9.466;2023-04-25T10:52:43;9.32;;;6.45;;
18973;SDS011;9621;48.690;9.466;2023-04-25T10:55:11;10.97;;;5.90;;
18973;SDS011;9621;48.690;9.466;2023-04-25T10:57:39;9.13;;;6.20;;
18973;SDS011;9621;48.690;9.466;2023-04-25T11:00:11;7.75;;;5.53;;
18973;SDS011;9621;48.690;9.466;2023-04-25T11:02:42;8.13;;;5.10;;
18973;SDS011;9621;48.690;9.466;2023-04-25T11:05:15;5.53;;;4.43;;
18973;SDS011;9621;48.690;9.466;2023-04-25T11:07:49;7.28;;;4.40;;
18973;SDS011;9621;48.690;9.466;2023-04-25T11:10:18;6.77;;;3.80;;
18973;SDS011;9621;48.690;9.466;2023-04-25T11:12:45;3.92;;;3.53;;
18973;SDS011;9621;48.690;9.466;2023-04-25T11:15:13;4.40;;;3.60;;
18973;SDS011;9621;48.690;9.466;2023-04-25T11:17:40;5.07;;;2.92;;
18973;SDS011;9621;48.690;9.466;2023-04-25T11:20:10;3.47;;;3.17;;
18973;SDS011;9621;48.690;9.466;2023-04-25T11:22:38;4.60;;;2.80;;
18973;SDS011;9621;48.690;9.466;2023-04-25T11:25:07;2.17;;;1.97;;
18973;SDS011;9621;48.690;9.466;2023-04-25T11:27:37;2.23;;;2.03;;
18973;SDS011;9621;48.690;9.466;2023-04-25T11:30:13;3.40;;;2.17;;
18973;SDS011;9621;48.690;9.466;2023-04-25T11:32:41;2.67;;;1.83;;
18973;SDS011;9621;48.690;9.466;2023-04-25T11:35:10;2.33;;;2.00;;
18973;SDS011;9621;48.690;9.466;2023-04-25T11:37:38;2.80;;;1.90;;
18973;SDS011;9621;48.690;9.466;2023-04-25T11:40:06;3.08;;;2.17;;
18973;SDS011;9621;48.690;9.466;2023-04-25T11:42:36;4.85;;;2.10;;
18973;SDS011;9621;48.690;9.466;2023-04-25T11:45:04;5.45;;;2.10;;
18973;SDS011;9621;48.690;9.466;2023-04-25T11:47:33;4.50;;;2.30;;
18973;SDS011;9621;48.690;9.466;2023-04-25T11:50:00;4.93;;;3.47;;
18973;SDS011;9621;48.690;9.466;2023-04-25T11:52:36;6.07;;;3.80;;
18973;SDS011;9621;48.690;9.466;2023-04-25T11:55:05;6.10;;;3.83;;
18973;SDS011;9621;48.690;9.466;2023-04-25T11:57:33;3.13;;;2.50;;
18973;SDS011;9621;48.690;9.466;2023-04-25T12:00:08;5.77;;;2.80;;
18973;SDS011;9621;48.690;9.466;2023-04-25T12:02:40;3.20;;;1.90;;
18973;SDS011;9621;48.690;9.466;2023-04-25T12:05:07;4.87;;;3.80;;
18973;SDS011;9621;48.690;9.466;2023-04-25T12:07:36;4.70;;;3.80;;
18973;SDS011;9621;48.690;9.466;2023-04-25T12:10:04;5.97;;;3.07;;
18973;SDS011;9621;48.690;9.466;2023-04-25T12:12:33;4.13;;;2.83;;
18973;SDS011;9621;48.690;9.466;2023-04-25T12:15:07;4.75;;;2.47;;
18973;SDS011;9621;48.690;9.466;2023-04-25T12:17:36;8.55;;;3.45;;
18973;SDS011;9621;48.690;9.466;2023-04-25T12:20:05;9.80;;;4.38;;
18973;SDS011;9621;48.690;9.466;2023-04-25T12:22:34;14.98;;;4.63;;
18973;SDS011;9621;48.690;9.466;2023-04-25T12:25:03;7.88;;;3.88;;
18973;SDS011;9621;48.690;9.466;2023-04-25T12:27:31;4.85;;;2.58;;
18973;SDS011;9621;48.690;9.466;2023-04-25T12:29:59;4.35;;;3.63;;
18973;SDS011;9621;48.690;9.466;2023-04-25T12:32:26;2.50;;;2.10;;
18973;SDS011;9621;48.690;9.466;2023-04-25T12:34:53;1.63;;;1.40;;
18973;SDS011;9621;48.690;9.466;2023-04-25T12:37:20;1.10;;;1.00;;
18973;SDS011;9621;48.690;9.466;2023-04-25T12:39:47;1.13;;;0.90;;
18973;SDS011;9621;48.690;9.466;2023-04-25T12:42:15;0.90;;;0.90;;
18973;SDS011;9621;48.690;9.466;2023-04-25T12:44:42;1.10;;;1.00;;
18973;SDS011;9621;48.690;9.466;2023-04-25T12:47:09;1.50;;;1.20;;
18973;SDS011;9621;48.690;9.466;2023-04-25T12:49:36;1.35;;;1.05;;
18973;SDS011;9621;48.690;9.466;2023-04-25T12:52:03;1.27;;;1.17;;
18973;SDS011;9621;48.690;9.466;2023-04-25T12:54:30;5.20;;;1.50;;
18973;SDS011;9621;48.690;9.466;2023-04-25T12:56:57;1.60;;;1.50;;
18973;SDS011;9621;48.690;9.466;2023-04-25T12:59:25;3.00;;;1.55;;
18973;SDS011;9621;48.690;9.466;2023-04-25T13:01:53;2.03;;;1.30;;
18973;SDS011;9621;48.690;9.466;2023-04-25T13:04:20;1.67;;;1.52;;
18973;SDS011;9621;48.690;9.466;2023-04-25T13:06:47;3.30;;;1.75;;
18973;SDS011;9621;48.690;9.466;2023-04-25T13:09:14;3.20;;;1.65;;
18973;SDS011;9621;48.690;9.466;2023-04-25T13:11:41;1.58;;;1.42;;
18973;SDS011;9621;48.690;9.466;2023-04-25T13:14:08;1.55;;;1.45;;
18973;SDS011;9621;48.690;9.466;2023-04-25T13:16:37;2.20;;;1.60;;
18973;SDS011;9621;48.690;9.466;2023-04-25T13:19:04;1.80;;;1.67;;
18973;SDS011;9621;48.690;9.466;2023-04-25T13:21:32;3.15;;;2.38;;
18973;SDS011;9621;48.690;9.466;2023-04-25T13:23:59;3.67;;;2.90;;
18973;SDS011;9621;48.690;9.466;2023-04-25T13:26:26;3.53;;;2.72;;
18973;SDS011;9621;48.690;9.466;2023-04-25T13:28:53;3.42;;;2.85;;
18973;SDS011;9621;48.690;9.466;2023-04-25T13:31:20;4.13;;;3.42;;
18973;SDS011;9621;48.690;9.466;2023-04-25T13:33:48;3.40;;;3.10;;
18973;SDS011;9621;48.690;9.466;2023-04-25T13:36:15;4.05;;;3.65;;
18973;SDS011;9621;48.690;9.466;2023-04-25T13:38:42;3.83;;;3.20;;
18973;SDS011;9621;48.690;9.466;2023-04-25T13:41:12;4.05;;;3.35;;
18973;SDS011;9621;48.690;9.466;2023-04-25T13:43:43;3.92;;;3.30;;
18973;SDS011;9621;48.690;9.466;2023-04-25T13:46:11;6.18;;;3.72;;
18973;SDS011;9621;48.690;9.466;2023-04-25T13:48:40;5.25;;;3.42;;
18973;SDS011;9621;48.690;9.466;2023-04-25T13:51:12;3.92;;;3.13;;
18973;SDS011;9621;48.690;9.466;2023-04-25T13:53:40;3.63;;;3.25;;
18973;SDS011;9621;48.690;9.466;2023-04-25T13:56:07;3.65;;;3.13;;
18973;SDS011;9621;48.690;9.466;2023-04-25T13:58:34;4.32;;;3.30;;
18973;SDS011;9621;48.690;9.466;2023-04-25T14:01:01;4.97;;;3.28;;
18973;SDS011;9621;48.690;9.466;2023-04-25T14:03:28;3.30;;;3.00;;
18973;SDS011;9621;48.690;9.466;2023-04-25T14:05:56;4.53;;;3.40;;
18973;SDS011;9621;48.690;9.466;2023-04-25T14:08:24;5.13;;;3.17;;
18973;SDS011;9621;48.690;9.466;2023-04-25T14:10:51;5.63;;;3.20;;
18973;SDS011;9621;48.690;9.466;2023-04-25T14:13:18;4.13;;;3.65;;
18973;SDS011;9621;48.690;9.466;2023-04-25T14:15:45;5.03;;;4.28;;
18973;SDS011;9621;48.690;9.466;2023-04-25T14:18:12;7.63;;;4.35;;
18973;SDS011;9621;48.690;9.466;2023-04-25T14:20:39;7.05;;;5.38;;
18973;SDS011;9621;48.690;9.466;2023-04-25T14:23:06;5.18;;;4.68;;
18973;SDS011;9621;48.690;9.466;2023-04-25T14:25:34;7.30;;;5.00;;
18973;SDS011;9621;48.690;9.466;2023-04-25T14:28:02;5.40;;;4.35;;
18973;SDS011;9621;48.690;9.466;2023-04-25T14:30:29;7.65;;;4.57;;
18973;SDS011;9621;48.690;9.466;2023-04-25T14:32:56;5.90;;;4.43;;
18973;SDS011;9621;48.690;9.466;2023-04-25T14:35:23;5.80;;;4.20;;
18973;SDS011;9621;48.690;9.466;2023-04-25T14:37:50;7.00;;;4.75;;
18973;SDS011;9621;48.690;9.466;2023-04-25T14:40:18;5.97;;;4.15;;
18973;SDS011;9621;48.690;9.466;2023-04-25T14:42:49;10.68;;;4.53;;
18973;SDS011;9621;48.690;9.466;2023-04-25T14:45:16;6.20;;;4.50;;
18973;SDS011;9621;48.690;9.466;2023-04-25T14:47:43;6.88;;;4.25;;
18973;SDS011;9621;48.690;9.466;2023-04-25T14:50:10;6.72;;;5.13;;
18973;SDS011;9621;48.690;9.466;2023-04-25T14:52:37;6.03;;;4.97;;
18973;SDS011;9621;48.690;9.466;2023-04-25T14:55:04;6.45;;;4.90;;
18973;SDS011;9621;48.690;9.466;2023-04-25T14:57:32;5.63;;;5.00;;
18973;SDS011;9621;48.690;9.466;2023-04-25T15:00:01;6.00;;;5.20;;
18973;SDS011;9621;48.690;9.466;2023-04-25T15:02:33;8.20;;;5.10;;
18973;SDS011;9621;48.690;9.466;2023-04-25T15:05:00;7.20;;;4.88;;
18973;SDS011;9621;48.690;9.466;2023-04-25T15:07:28;9.57;;;5.25;;